• Join FlightAware (Why Join?)
  • Login
  • US Flag 
09:58AM EDT


 

Airport Tracker/Info


-or-


 

Live Flight TrackerFlight Track Log ✈ ASQ6151 ✈ 02-May-2013 ✈ KORD - KPIA

Flight Track Log - Related Links

Times and Time Zones

All times are in EDT time to prevent confusion due to time zone crossing. See the ASQ6151 flight status page for this flight to view local times or setup timezone preferences in your user account.

Time Position Orientation Groundspeed Altitude Reporting Facility
EDT Latitude Longitude Course Direction KTS MPH feet Rate Location/Type
10:42PM 41.9260 -88.9073 217° Southwest  Level FlightAware Approximate
10:43PM 41.8473 -88.9814 213° Southwest  Level FlightAware Approximate
10:44PM 41.7665 -89.0515 213° Southwest  Level FlightAware Approximate
10:45PM 41.6858 -89.1214 213° Southwest  Level FlightAware Approximate
10:46PM 41.6047 -89.1906 212° Southwest  Level FlightAware Approximate
10:47PM 41.5236 -89.2597 217° Southwest  Level FlightAware Approximate
10:48PM 41.4431 -89.3298 213° Southwest  Level FlightAware Approximate
10:49PM 41.3625 -89.3996 210° Southwest  Level FlightAware Approximate
10:50PM 41.2794 -89.4642 210° Southwest  Level FlightAware Approximate
10:51PM 41.1992 -89.5342 217° Southwest  Level FlightAware Approximate
10:52PM 41.1155 -89.5883 186° South  Level FlightAware Approximate
10:53PM 41.0226 -89.6108 217° Southwest  Level FlightAware Approximate
10:54PM 40.9283 -89.6277 185° South  Level FlightAware Approximate
10:55PM 40.8338 -89.6498 194° South  Level FlightAware Approximate
10:56PM 40.7384 -89.6623 189° South  Level FlightAware Approximate
10:57PM 40.6642 -89.6933 191° South  Level Estimated
10:58PM 40.6642 -89.6933 191° South  Level Estimated
10:59PM 40.6642 -89.6933 191° South  Level Estimated
11:00PM 40.6642 -89.6933 191° South  Level Estimated
11:01PM 40.6642 -89.6933 191° South  Level Estimated
11:02PM 40.6642 -89.6933 191° South  Level Estimated
11:03PM 40.6642 -89.6933 191° South  Level Estimated
11:04PM 40.6642 -89.6933 191° South  Level Estimated
11:05PM 40.6642 -89.6933 191° South  Level Estimated
11:06PM 40.6642 -89.6933 191° South  Level Estimated
11:07PM 40.6642 -89.6933 191° South  Level Estimated
11:08PM 40.6642 -89.6933 191° South  Level Estimated
11:09PM 40.6642 -89.6933 191° South  Level Estimated
11:10PM 40.6642 -89.6933 191° South  Level Estimated
11:11PM 40.6642 -89.6933 191° South  Level Estimated
11:12PM 40.6642 -89.6933 191° South  Level Estimated
11:13PM 40.6642 -89.6933 191° South  Level Estimated